Time;durP1;ratioP1;P1;durP2;ratioP2;P2;SDS_P1;SDS_P2;PMS_P1;PMS_P2;Temp;Humidity;BMP_temperature;BMP_pressure;BME280_temperature;BME280_humidity;BME280_pressure;Samples;Min_cycle;Max_cycle;Signal;HPM_P1;HPM_P2
2021/07/20 00:01:47;;;;;;;;;13.50;11.75;;;;;;;;5031207;27;45599;-81
2021/07/20 00:04:13;;;;;;;;;12.00;11.50;;;;;;;;5018532;27;48481;-80
2021/07/20 00:06:38;;;;;;;;;14.67;13.00;;;;;;;;5034093;28;45555;-81
2021/07/20 00:09:05;;;;;;;;;16.33;14.00;;;;;;;;5030044;27;49041;-81
2021/07/20 00:11:34;;;;;;;;;12.75;12.50;;;;;;;;5024402;28;45429;-81
2021/07/20 00:14:00;;;;;;;;;11.00;10.50;;;;;;;;5024797;27;46199;-80
2021/07/20 00:16:25;;;;;;;;;14.75;12.75;;;;;;;;5021569;27;45742;-80
2021/07/20 00:18:50;;;;;;;;;10.67;10.67;;;;;;;;5013863;28;45672;-81
2021/07/20 00:21:15;;;;;;;;;18.33;13.00;;;;;;;;5025032;27;45752;-81
2021/07/20 00:23:41;;;;;;;;;13.00;13.00;;;;;;;;5030043;27;46102;-81
2021/07/20 00:26:06;;;;;;;;;19.00;13.67;;;;;;;;5002719;27;46363;-81
2021/07/20 00:28:31;;;;;;;;;11.75;11.75;;;;;;;;5037435;27;45676;-81
2021/07/20 00:30:57;;;;;;;;;13.50;10.50;;;;;;;;5037600;28;45493;-81
2021/07/20 00:33:22;;;;;;;;;12.25;12.25;;;;;;;;5029268;27;46626;-80
2021/07/20 00:35:47;;;;;;;;;13.00;13.00;;;;;;;;5037045;28;45816;-80
2021/07/20 00:38:13;;;;;;;;;12.75;9.75;;;;;;;;5039596;27;45363;-80
2021/07/20 00:40:39;;;;;;;;;12.50;11.75;;;;;;;;5033613;27;45460;-81
2021/07/20 00:43:05;;;;;;;;;13.75;12.50;;;;;;;;5021039;27;48487;-81
2021/07/20 00:45:30;;;;;;;;;13.00;12.00;;;;;;;;5034374;28;45457;-80
2021/07/20 00:47:56;;;;;;;;;12.00;11.25;;;;;;;;5036318;27;45484;-80
2021/07/20 00:50:26;;;;;;;;;13.75;11.00;;;;;;;;5036468;27;45491;-80
2021/07/20 00:52:52;;;;;;;;;10.25;10.25;;;;;;;;5036623;27;45464;-80
2021/07/20 00:55:18;;;;;;;;;11.50;11.00;;;;;;;;5037065;27;45676;-81
2021/07/20 00:57:43;;;;;;;;;11.75;10.75;;;;;;;;5019536;28;45366;-81
2021/07/20 01:00:10;;;;;;;;;13.00;11.33;;;;;;;;5033126;28;45482;-80
2021/07/20 01:02:36;;;;;;;;;14.00;10.00;;;;;;;;5038819;27;47084;-80
2021/07/20 01:05:03;;;;;;;;;14.00;11.75;;;;;;;;5036935;27;45305;-81
2021/07/20 01:07:28;;;;;;;;;13.75;10.75;;;;;;;;5054595;27;45569;-80
2021/07/20 01:09:55;;;;;;;;;12.25;11.25;;;;;;;;5045674;27;45428;-81
2021/07/20 01:12:21;;;;;;;;;9.00;9.00;;;;;;;;5026005;27;46014;-81
2021/07/20 01:14:47;;;;;;;;;11.50;10.00;;;;;;;;5026096;27;45824;-81
2021/07/20 01:17:13;;;;;;;;;11.00;11.00;;;;;;;;5041376;27;45726;-80
2021/07/20 01:19:45;;;;;;;;;13.00;12.00;;;;;;;;5032808;28;45507;-80
2021/07/20 01:22:13;;;;;;;;;14.50;10.00;;;;;;;;5030835;27;45568;-81
2021/07/20 01:24:38;;;;;;;;;15.00;12.00;;;;;;;;5030619;28;45498;-80
2021/07/20 01:27:04;;;;;;;;;13.00;12.00;;;;;;;;5040085;27;45497;-80
2021/07/20 01:29:29;;;;;;;;;13.25;12.00;;;;;;;;5090204;27;45574;-80
2021/07/20 01:31:55;;;;;;;;;10.50;10.50;;;;;;;;5037009;28;45950;-81
2021/07/20 01:34:21;;;;;;;;;9.25;9.25;;;;;;;;5027926;27;45812;-80
2021/07/20 01:36:47;;;;;;;;;17.00;12.00;;;;;;;;5026483;28;45571;-80
2021/07/20 01:39:13;;;;;;;;;11.00;11.00;;;;;;;;5039829;27;45478;-80
2021/07/20 01:41:40;;;;;;;;;14.00;11.50;;;;;;;;5013327;27;46424;-80
2021/07/20 01:44:06;;;;;;;;;12.50;10.75;;;;;;;;5035161;27;45586;-80
2021/07/20 01:46:33;;;;;;;;;15.25;10.50;;;;;;;;5033256;27;48694;-80
2021/07/20 01:48:59;;;;;;;;;12.25;11.00;;;;;;;;5038520;28;45519;-80
2021/07/20 01:51:26;;;;;;;;;14.50;11.25;;;;;;;;5039155;27;46232;-80
2021/07/20 01:53:51;;;;;;;;;13.50;11.75;;;;;;;;5027981;27;45504;-81
2021/07/20 01:56:17;;;;;;;;;14.00;12.00;;;;;;;;5019714;28;45395;-80
2021/07/20 01:58:43;;;;;;;;;12.75;11.50;;;;;;;;5034364;27;45371;-80
2021/07/20 02:01:10;;;;;;;;;10.25;9.50;;;;;;;;5033284;27;47012;-80
2021/07/20 02:09:03;;;;;;;;;11.50;11.50;;;;;;;;5026338;27;45420;-81
2021/07/20 02:11:31;;;;;;;;;11.50;11.50;;;;;;;;5016114;27;46421;-80
2021/07/20 02:14:02;;;;;;;;;12.00;12.00;;;;;;;;5033656;27;45566;-80
2021/07/20 02:16:29;;;;;;;;;14.25;11.50;;;;;;;;5036153;27;45498;-79
2021/07/20 02:19:13;;;;;;;;;16.25;12.00;;;;;;;;5040921;28;45622;-81
2021/07/20 02:21:41;;;;;;;;;12.00;10.75;;;;;;;;5028937;27;45437;-80
2021/07/20 02:24:07;;;;;;;;;13.00;12.25;;;;;;;;5033541;27;45444;-80
2021/07/20 02:26:33;;;;;;;;;20.00;12.50;;;;;;;;5036597;27;45442;-80
2021/07/20 02:28:59;;;;;;;;;13.00;10.00;;;;;;;;5039269;27;45688;-80
2021/07/20 02:31:24;;;;;;;;;11.25;10.50;;;;;;;;5039981;27;45502;-80
2021/07/20 02:33:50;;;;;;;;;13.33;12.00;;;;;;;;5018387;28;45421;-80
2021/07/20 02:36:16;;;;;;;;;14.00;11.00;;;;;;;;5031380;27;45339;-80
2021/07/20 02:38:42;;;;;;;;;9.00;9.00;;;;;;;;5039024;27;45557;-80
2021/07/20 02:41:08;;;;;;;;;14.00;12.00;;;;;;;;5033836;27;45333;-80
2021/07/20 02:43:34;;;;;;;;;12.75;11.75;;;;;;;;5036723;27;45289;-80
2021/07/20 02:46:00;;;;;;;;;11.75;10.75;;;;;;;;5036354;28;45680;-80
2021/07/20 02:48:25;;;;;;;;;14.25;13.00;;;;;;;;5017146;28;45647;-80
2021/07/20 02:50:51;;;;;;;;;10.50;10.50;;;;;;;;5027770;27;46000;-80
2021/07/20 02:53:17;;;;;;;;;12.00;12.00;;;;;;;;5015647;28;45476;-80
2021/07/20 02:55:43;;;;;;;;;13.00;11.50;;;;;;;;5019896;27;45515;-80
2021/07/20 02:58:08;;;;;;;;;14.00;11.00;;;;;;;;5035885;27;45392;-81
2021/07/20 03:00:34;;;;;;;;;17.75;15.00;;;;;;;;5014563;27;47964;-80
2021/07/20 03:03:00;;;;;;;;;15.25;13.00;;;;;;;;5013183;27;45512;-80
2021/07/20 03:05:25;;;;;;;;;11.50;9.75;;;;;;;;5020403;27;45416;-80
2021/07/20 03:07:53;;;;;;;;;15.75;13.50;;;;;;;;5032157;27;45390;-80
2021/07/20 03:10:19;;;;;;;;;17.00;12.00;;;;;;;;5031942;27;46290;-80
2021/07/20 03:12:46;;;;;;;;;15.75;14.25;;;;;;;;5034550;28;45750;-80
2021/07/20 03:15:11;;;;;;;;;12.50;12.00;;;;;;;;5037511;27;45455;-80
2021/07/20 03:17:37;;;;;;;;;16.00;14.50;;;;;;;;5031942;27;45442;-80
2021/07/20 03:20:03;;;;;;;;;13.00;12.75;;;;;;;;5035547;27;45986;-80
2021/07/20 03:22:29;;;;;;;;;12.25;12.25;;;;;;;;5019958;27;45968;-80
2021/07/20 03:24:56;;;;;;;;;15.00;13.50;;;;;;;;5041110;28;45498;-80
2021/07/20 03:27:22;;;;;;;;;11.75;11.75;;;;;;;;5031277;27;45344;-80
2021/07/20 03:29:48;;;;;;;;;15.00;12.25;;;;;;;;5028782;27;46190;-80
2021/07/20 03:32:15;;;;;;;;;15.00;13.50;;;;;;;;5034573;27;46137;-80
2021/07/20 03:34:41;;;;;;;;;17.00;12.00;;;;;;;;5034319;27;45859;-80
2021/07/20 03:37:07;;;;;;;;;16.75;13.75;;;;;;;;5033320;27;45597;-80
2021/07/20 03:39:33;;;;;;;;;17.50;12.00;;;;;;;;5031912;27;45722;-79
2021/07/20 03:41:59;;;;;;;;;16.25;13.50;;;;;;;;5036328;27;45486;-80
2021/07/20 03:44:25;;;;;;;;;11.75;11.25;;;;;;;;5038174;27;45469;-80
2021/07/20 03:46:50;;;;;;;;;13.25;12.00;;;;;;;;5035024;27;45568;-80
2021/07/20 03:49:16;;;;;;;;;14.00;11.75;;;;;;;;5031747;27;46068;-80
2021/07/20 03:51:42;;;;;;;;;18.25;13.75;;;;;;;;5034185;28;45678;-80
2021/07/20 03:54:08;;;;;;;;;13.50;12.00;;;;;;;;5029410;27;45606;-80
2021/07/20 03:56:34;;;;;;;;;16.00;15.00;;;;;;;;5037119;27;45469;-80
2021/07/20 03:58:59;;;;;;;;;22.50;17.00;;;;;;;;5078628;27;45376;-80
2021/07/20 04:01:27;;;;;;;;;14.25;13.25;;;;;;;;5045093;27;45449;-80
2021/07/20 04:03:53;;;;;;;;;13.25;12.25;;;;;;;;5036302;28;45913;-79
2021/07/20 04:06:22;;;;;;;;;17.25;14.25;;;;;;;;5020313;27;45694;-80
2021/07/20 04:08:47;;;;;;;;;14.75;13.25;;;;;;;;5031466;27;45454;-80
2021/07/20 04:11:13;;;;;;;;;13.75;12.50;;;;;;;;5045840;27;45687;-80
2021/07/20 04:13:38;;;;;;;;;11.75;11.75;;;;;;;;5033807;27;45847;-80
2021/07/20 04:16:05;;;;;;;;;15.25;14.25;;;;;;;;5038473;28;45343;-80
2021/07/20 04:18:31;;;;;;;;;14.00;10.25;;;;;;;;5006105;27;47726;-80
2021/07/20 04:20:57;;;;;;;;;19.00;15.00;;;;;;;;5034336;27;45553;-80
2021/07/20 04:23:23;;;;;;;;;15.00;14.00;;;;;;;;5019829;27;45484;-79
2021/07/20 04:25:50;;;;;;;;;18.00;13.75;;;;;;;;5035028;27;45599;-80
2021/07/20 04:28:15;;;;;;;;;15.50;15.25;;;;;;;;5017745;27;48559;-79
2021/07/20 04:30:41;;;;;;;;;14.50;13.50;;;;;;;;5026979;28;45417;-79
2021/07/20 04:33:07;;;;;;;;;18.00;14.75;;;;;;;;5032065;27;45753;-80
2021/07/20 04:35:33;;;;;;;;;14.00;13.00;;;;;;;;5034257;27;45361;-80
2021/07/20 04:37:59;;;;;;;;;16.50;14.00;;;;;;;;5040840;27;46271;-80
2021/07/20 04:40:25;;;;;;;;;15.50;13.50;;;;;;;;5036577;27;45489;-80
2021/07/20 04:42:50;;;;;;;;;18.25;13.50;;;;;;;;5027966;28;45500;-80
2021/07/20 04:45:16;;;;;;;;;16.75;14.25;;;;;;;;5015601;27;45586;-80
2021/07/20 04:47:42;;;;;;;;;17.25;14.50;;;;;;;;5015813;27;45402;-80
2021/07/20 04:50:09;;;;;;;;;17.50;14.25;;;;;;;;5023792;27;45450;-80
2021/07/20 04:52:34;;;;;;;;;15.75;15.00;;;;;;;;5037182;27;45497;-80
2021/07/20 04:55:00;;;;;;;;;14.75;13.00;;;;;;;;5045450;28;45662;-80
2021/07/20 04:57:25;;;;;;;;;19.25;16.00;;;;;;;;5027378;27;47015;-79
2021/07/20 04:59:51;;;;;;;;;16.33;16.00;;;;;;;;5043871;27;45278;-79
2021/07/20 05:02:17;;;;;;;;;17.00;14.75;;;;;;;;5041159;27;45349;-80
2021/07/20 05:04:43;;;;;;;;;18.50;15.00;;;;;;;;5034578;27;45449;-80
2021/07/20 05:07:11;;;;;;;;;14.75;13.75;;;;;;;;5035867;27;46159;-81
2021/07/20 05:09:37;;;;;;;;;14.00;13.00;;;;;;;;5027426;28;45349;-80
2021/07/20 05:12:03;;;;;;;;;17.50;14.25;;;;;;;;5020248;27;45587;-80
2021/07/20 05:14:28;;;;;;;;;15.00;14.00;;;;;;;;5015668;27;45542;-80
2021/07/20 05:16:53;;;;;;;;;15.50;14.00;;;;;;;;5029665;27;45733;-79
2021/07/20 05:19:19;;;;;;;;;18.00;15.00;;;;;;;;5014175;27;45700;-79
2021/07/20 05:21:45;;;;;;;;;14.75;14.75;;;;;;;;5033826;28;45508;-79
2021/07/20 05:24:10;;;;;;;;;18.00;14.50;;;;;;;;5039352;27;45439;-79
2021/07/20 05:26:37;;;;;;;;;13.50;12.00;;;;;;;;5032797;27;46210;-79
2021/07/20 05:29:04;;;;;;;;;17.25;16.00;;;;;;;;5039173;28;46073;-79
2021/07/20 05:31:30;;;;;;;;;13.75;13.25;;;;;;;;5030660;27;45428;-79
2021/07/20 05:33:55;;;;;;;;;20.75;17.25;;;;;;;;5028496;28;45556;-79
2021/07/20 05:36:21;;;;;;;;;14.75;13.00;;;;;;;;5012183;27;46069;-79
2021/07/20 05:38:46;;;;;;;;;18.75;14.75;;;;;;;;5026869;27;45550;-79
2021/07/20 05:41:11;;;;;;;;;13.33;11.67;;;;;;;;5032954;27;45354;-80
2021/07/20 05:43:37;;;;;;;;;21.25;17.50;;;;;;;;5033587;27;45554;-79
2021/07/20 05:46:03;;;;;;;;;24.75;18.75;;;;;;;;5033200;28;46412;-79
2021/07/20 05:48:28;;;;;;;;;20.25;14.50;;;;;;;;5018200;28;45808;-78
2021/07/20 05:50:56;;;;;;;;;15.00;15.00;;;;;;;;5030568;27;45498;-79
2021/07/20 05:53:22;;;;;;;;;21.50;20.00;;;;;;;;5042640;27;45659;-79
2021/07/20 05:55:52;;;;;;;;;27.75;22.50;;;;;;;;5032877;27;46386;-79
2021/07/20 05:58:21;;;;;;;;;21.00;20.50;;;;;;;;5033561;27;45824;-79
2021/07/20 06:00:47;;;;;;;;;24.00;19.25;;;;;;;;5036144;28;45452;-79
2021/07/20 06:03:14;;;;;;;;;22.25;18.25;;;;;;;;5034639;27;45438;-79
2021/07/20 06:05:41;;;;;;;;;26.75;22.75;;;;;;;;5039089;27;46381;-78
2021/07/20 06:08:06;;;;;;;;;26.00;23.00;;;;;;;;5040251;27;45399;-80
2021/07/20 06:10:31;;;;;;;;;27.00;22.67;;;;;;;;5032125;27;45524;-80
2021/07/20 06:13:00;;;;;;;;;25.33;19.67;;;;;;;;5032617;28;45811;-80
2021/07/20 06:15:25;;;;;;;;;36.00;26.00;;;;;;;;5038986;27;45673;-80
2021/07/20 06:17:51;;;;;;;;;26.50;23.75;;;;;;;;5035809;27;45439;-80
2021/07/20 06:20:16;;;;;;;;;26.00;22.25;;;;;;;;5036638;27;45325;-80
2021/07/20 06:22:44;;;;;;;;;29.33;25.00;;;;;;;;5030327;27;45346;-80
2021/07/20 06:25:10;;;;;;;;;27.00;24.25;;;;;;;;5031508;27;45643;-80
2021/07/20 06:27:35;;;;;;;;;29.50;21.25;;;;;;;;5034378;28;45574;-80
2021/07/20 06:30:01;;;;;;;;;29.75;26.50;;;;;;;;5033620;28;45530;-80
2021/07/20 06:32:27;;;;;;;;;30.00;22.00;;;;;;;;5016118;27;45487;-80
2021/07/20 06:34:52;;;;;;;;;27.50;25.50;;;;;;;;5015706;27;46089;-80
2021/07/20 06:37:18;;;;;;;;;27.25;24.75;;;;;;;;5032558;27;45550;-80
2021/07/20 06:39:44;;;;;;;;;27.25;21.75;;;;;;;;5039109;28;45470;-80
2021/07/20 06:42:10;;;;;;;;;31.75;28.50;;;;;;;;5030590;27;45416;-80
2021/07/20 06:44:36;;;;;;;;;28.25;25.25;;;;;;;;5026150;27;46420;-85
2021/07/20 06:47:02;;;;;;;;;37.50;31.75;;;;;;;;5022905;27;45881;-81
2021/07/20 06:49:28;;;;;;;;;25.75;22.25;;;;;;;;5035878;27;45507;-79
2021/07/20 06:51:54;;;;;;;;;34.50;26.50;;;;;;;;5031342;28;45435;-79
2021/07/20 06:54:19;;;;;;;;;33.00;27.75;;;;;;;;5031888;27;45758;-78
2021/07/20 06:56:47;;;;;;;;;29.25;26.50;;;;;;;;5011471;27;45741;-80
2021/07/20 06:59:13;;;;;;;;;28.00;26.00;;;;;;;;5038082;27;45533;-79
2021/07/20 07:01:40;;;;;;;;;30.75;26.75;;;;;;;;5032132;27;45484;-79
2021/07/20 07:04:11;;;;;;;;;31.50;28.25;;;;;;;;5031592;27;45558;-77
2021/07/20 07:06:38;;;;;;;;;27.50;23.50;;;;;;;;5032279;28;45376;-79
2021/07/20 07:09:04;;;;;;;;;28.75;23.00;;;;;;;;5034216;27;45753;-78
2021/07/20 07:11:30;;;;;;;;;26.75;26.00;;;;;;;;5015706;27;45524;-78
2021/07/20 07:13:55;;;;;;;;;29.00;24.00;;;;;;;;5031389;27;46636;-78
2021/07/20 07:16:21;;;;;;;;;25.25;24.00;;;;;;;;5033239;28;45665;-78
2021/07/20 07:18:47;;;;;;;;;26.25;20.75;;;;;;;;5036349;28;45557;-79
2021/07/20 07:21:13;;;;;;;;;28.25;24.25;;;;;;;;5029786;28;45624;-80
2021/07/20 07:23:40;;;;;;;;;28.50;24.00;;;;;;;;5030529;27;45454;-79
2021/07/20 07:26:06;;;;;;;;;28.00;22.00;;;;;;;;5033604;27;45722;-79
2021/07/20 07:28:31;;;;;;;;;18.75;17.50;;;;;;;;5018644;27;45506;-79
2021/07/20 07:30:58;;;;;;;;;23.75;20.75;;;;;;;;5031472;28;45477;-79
2021/07/20 07:33:23;;;;;;;;;27.25;24.00;;;;;;;;5015875;27;47020;-79
2021/07/20 07:35:49;;;;;;;;;26.50;21.25;;;;;;;;5015586;27;46057;-78
2021/07/20 07:38:17;;;;;;;;;23.25;18.25;;;;;;;;5028987;27;45452;-83
2021/07/20 07:40:45;;;;;;;;;30.50;21.50;;;;;;;;5031357;27;45393;-78
2021/07/20 07:43:13;;;;;;;;;23.25;23.25;;;;;;;;5031798;27;45699;-79
2021/07/20 07:45:38;;;;;;;;;25.50;22.00;;;;;;;;5017416;28;46277;-78
2021/07/20 07:48:04;;;;;;;;;20.25;20.25;;;;;;;;5033825;27;45435;-80
2021/07/20 07:50:29;;;;;;;;;25.00;24.75;;;;;;;;5032066;27;45520;-78
2021/07/20 07:52:56;;;;;;;;;23.25;21.75;;;;;;;;5031906;27;45955;-79
2021/07/20 07:55:22;;;;;;;;;26.00;22.50;;;;;;;;5031181;27;45815;-78
2021/07/20 07:57:47;;;;;;;;;31.75;28.25;;;;;;;;5031364;28;45482;-80
2021/07/20 08:00:13;;;;;;;;;31.00;21.75;;;;;;;;5012363;27;45730;-80
2021/07/20 08:02:39;;;;;;;;;27.00;22.25;;;;;;;;5031717;27;45504;-78
2021/07/20 08:05:05;;;;;;;;;27.25;20.50;;;;;;;;5031968;27;45457;-79
2021/07/20 08:07:32;;;;;;;;;23.75;20.50;;;;;;;;5014343;27;45586;-78
2021/07/20 08:09:57;;;;;;;;;21.75;21.50;;;;;;;;5030913;28;45592;-78
2021/07/20 08:12:23;;;;;;;;;28.25;24.25;;;;;;;;5028108;27;45513;-78
2021/07/20 08:14:49;;;;;;;;;32.50;25.50;;;;;;;;5023245;27;45731;-78
2021/07/20 08:17:14;;;;;;;;;24.25;21.25;;;;;;;;5026612;27;45580;-77
2021/07/20 08:19:40;;;;;;;;;31.50;27.25;;;;;;;;5027253;27;45530;-77
2021/07/20 08:22:11;;;;;;;;;23.50;20.50;;;;;;;;5029083;27;46757;-78
2021/07/20 08:24:40;;;;;;;;;23.00;21.25;;;;;;;;5023348;27;47072;-78
2021/07/20 08:27:26;;;;;;;;;25.00;21.75;;;;;;;;5030920;27;46499;-79
2021/07/20 08:29:55;;;;;;;;;28.25;24.50;;;;;;;;5014148;27;45743;-81
2021/07/20 08:32:21;;;;;;;;;23.50;21.75;;;;;;;;5033184;27;46685;-84
2021/07/20 08:34:57;;;;;;;;;24.50;24.50;;;;;;;;5023980;27;45920;-83
2021/07/20 08:37:23;;;;;;;;;23.75;20.50;;;;;;;;5028682;27;45573;-83
2021/07/20 08:39:50;;;;;;;;;28.50;25.25;;;;;;;;5022563;28;45515;-81
2021/07/20 08:42:15;;;;;;;;;28.50;23.25;;;;;;;;5017836;27;45464;-80
2021/07/20 08:44:59;;;;;;;;;32.25;27.00;;;;;;;;5011568;27;45815;-80
2021/07/20 08:47:33;;;;;;;;;34.50;30.50;;;;;;;;5013474;27;45552;-80
2021/07/20 08:50:16;;;;;;;;;45.75;36.00;;;;;;;;5019447;27;45488;-81
2021/07/20 08:52:43;;;;;;;;;38.00;32.25;;;;;;;;5019210;27;46632;-80
2021/07/20 08:55:10;;;;;;;;;37.25;30.25;;;;;;;;5027251;27;45820;-81
2021/07/20 08:57:38;;;;;;;;;37.25;29.50;;;;;;;;5026318;27;45590;-80
2021/07/20 09:00:07;;;;;;;;;35.00;30.25;;;;;;;;5028196;27;45635;-83
2021/07/20 09:02:47;;;;;;;;;38.75;31.75;;;;;;;;5039948;27;46530;-81
2021/07/20 09:05:12;;;;;;;;;30.25;25.75;;;;;;;;5020368;27;46764;-81
2021/07/20 09:08:01;;;;;;;;;32.50;27.00;;;;;;;;5025008;27;45901;-81
2021/07/20 09:10:30;;;;;;;;;22.00;22.00;;;;;;;;5044768;27;45711;-81
2021/07/20 09:12:55;;;;;;;;;21.75;20.75;;;;;;;;5021295;27;46974;-81
2021/07/20 09:15:21;;;;;;;;;24.67;21.67;;;;;;;;5034309;27;45677;-82
2021/07/20 09:18:08;;;;;;;;;24.00;22.50;;;;;;;;5031693;27;45532;-82
2021/07/20 09:20:34;;;;;;;;;24.50;20.25;;;;;;;;5028316;27;45713;-81
2021/07/20 09:23:22;;;;;;;;;19.25;19.25;;;;;;;;5028733;27;46628;-83
2021/07/20 09:25:57;;;;;;;;;24.50;20.00;;;;;;;;5020488;27;45811;-83
2021/07/20 09:28:30;;;;;;;;;19.75;19.50;;;;;;;;5047466;27;45277;-84
2021/07/20 09:30:56;;;;;;;;;23.75;17.50;;;;;;;;5019379;27;45527;-84
2021/07/20 09:33:40;;;;;;;;;22.25;18.75;;;;;;;;5020284;27;45566;-84
2021/07/20 09:36:24;;;;;;;;;18.50;18.00;;;;;;;;5037651;27;45518;-83
2021/07/20 09:38:55;;;;;;;;;20.25;15.75;;;;;;;;5016073;27;45592;-88
2021/07/20 09:41:26;;;;;;;;;22.50;18.50;;;;;;;;5036969;27;45467;-88
2021/07/20 09:43:58;;;;;;;;;24.25;20.00;;;;;;;;5033741;27;45746;-88
2021/07/20 09:46:46;;;;;;;;;21.00;17.00;;;;;;;;5031907;28;45627;-88
2021/07/20 09:49:18;;;;;;;;;19.75;19.25;;;;;;;;5037225;27;45566;-88
2021/07/20 09:52:11;;;;;;;;;20.75;20.75;;;;;;;;5031448;28;45580;-87
2021/07/20 09:54:45;;;;;;;;;20.75;15.75;;;;;;;;5026191;28;45465;-87
2021/07/20 09:57:22;;;;;;;;;20.00;15.75;;;;;;;;5031203;28;45402;-87
2021/07/20 09:59:57;;;;;;;;;21.25;16.75;;;;;;;;5042767;27;45518;-87
2021/07/20 10:02:29;;;;;;;;;17.00;14.25;;;;;;;;5023043;27;45355;-87
2021/07/20 10:05:14;;;;;;;;;23.75;20.00;;;;;;;;5034243;27;46102;-87
2021/07/20 10:07:45;;;;;;;;;23.25;17.50;;;;;;;;5035068;27;45468;-87
2021/07/20 10:10:25;;;;;;;;;19.75;16.25;;;;;;;;5020064;27;45483;-87
2021/07/20 10:12:51;;;;;;;;;23.00;19.50;;;;;;;;5025144;28;45617;-87
2021/07/20 10:15:19;;;;;;;;;20.75;19.25;;;;;;;;5027522;27;46141;-87
2021/07/20 10:18:04;;;;;;;;;22.00;18.00;;;;;;;;5035153;27;45907;-87
2021/07/20 10:20:43;;;;;;;;;19.00;18.00;;;;;;;;5037276;27;45773;-88
2021/07/20 10:23:27;;;;;;;;;23.50;18.25;;;;;;;;5035847;27;45387;-87
2021/07/20 10:25:52;;;;;;;;;22.25;19.25;;;;;;;;5039278;27;46454;-86
2021/07/20 10:28:25;;;;;;;;;24.33;19.67;;;;;;;;5037821;27;45307;-87
2021/07/20 10:30:53;;;;;;;;;20.75;19.25;;;;;;;;5013344;27;45406;-82
2021/07/20 10:33:20;;;;;;;;;29.00;19.25;;;;;;;;5031633;28;45426;-86
2021/07/20 10:35:50;;;;;;;;;24.25;21.50;;;;;;;;5035157;28;45566;-86
2021/07/20 10:38:17;;;;;;;;;24.50;21.75;;;;;;;;5040717;27;45656;-87
2021/07/20 10:40:42;;;;;;;;;27.75;21.00;;;;;;;;5060058;27;45673;-86
2021/07/20 10:43:08;;;;;;;;;22.25;18.50;;;;;;;;5049243;27;45509;-87
2021/07/20 10:45:35;;;;;;;;;23.33;19.67;;;;;;;;5029069;28;46740;-79
2021/07/20 10:48:18;;;;;;;;;48.75;37.50;;;;;;;;5013892;27;46015;-80
2021/07/20 10:51:02;;;;;;;;;74.75;57.75;;;;;;;;5030618;27;46756;-80
2021/07/20 10:53:31;;;;;;;;;199.25;162.00;;;;;;;;5022147;27;45371;-78
2021/07/20 10:56:19;;;;;;;;;60.75;45.50;;;;;;;;5024020;27;46740;-80
2021/07/20 10:58:48;;;;;;;;;37.50;31.00;;;;;;;;5039621;27;45479;-80
2021/07/20 11:01:46;;;;;;;;;27.75;25.00;;;;;;;;5031452;27;48742;-82
2021/07/20 11:04:19;;;;;;;;;22.25;21.00;;;;;;;;5048712;28;45433;-79
2021/07/20 11:06:46;;;;;;;;;27.75;26.25;;;;;;;;5047845;28;46105;-81
2021/07/20 11:09:22;;;;;;;;;28.75;23.75;;;;;;;;5058868;28;45737;-81
2021/07/20 11:11:49;;;;;;;;;21.00;18.00;;;;;;;;5049836;28;45366;-79
2021/07/20 11:14:15;;;;;;;;;18.75;18.25;;;;;;;;5052969;28;45485;-80
2021/07/20 11:16:41;;;;;;;;;21.00;18.50;;;;;;;;5051943;28;45455;-77
2021/07/20 11:19:07;;;;;;;;;25.50;21.25;;;;;;;;5050535;28;45808;-83
2021/07/20 11:21:33;;;;;;;;;20.75;20.25;;;;;;;;5041633;28;45525;-85
2021/07/20 11:23:59;;;;;;;;;24.25;18.25;;;;;;;;5048106;28;45474;-84
2021/07/20 11:26:25;;;;;;;;;20.00;18.50;;;;;;;;5038241;28;47196;-82
2021/07/20 11:28:51;;;;;;;;;24.50;17.75;;;;;;;;5056353;28;45569;-84
2021/07/20 11:31:32;;;;;;;;;19.50;18.50;;;;;;;;5049553;28;45433;-83
2021/07/20 11:34:00;;;;;;;;;16.50;16.00;;;;;;;;5047170;28;45568;-84
2021/07/20 11:36:30;;;;;;;;;20.50;16.00;;;;;;;;5047795;28;45363;-83
2021/07/20 11:38:56;;;;;;;;;17.00;16.75;;;;;;;;5039800;28;45773;-83
2021/07/20 11:41:44;;;;;;;;;19.25;16.25;;;;;;;;5036975;27;45290;-84
2021/07/20 11:44:15;;;;;;;;;19.00;15.25;;;;;;;;5036337;27;45917;-84
2021/07/20 11:46:47;;;;;;;;;17.00;17.00;;;;;;;;5016192;27;48382;-84
2021/07/20 11:49:16;;;;;;;;;16.00;14.00;;;;;;;;5027368;27;45564;-84
2021/07/20 11:51:47;;;;;;;;;13.00;11.75;;;;;;;;5028487;28;45378;-84
2021/07/20 11:54:28;;;;;;;;;16.75;16.50;;;;;;;;5033759;28;45478;-83
2021/07/20 11:56:56;;;;;;;;;17.50;15.50;;;;;;;;5021928;27;46200;-85
2021/07/20 11:59:41;;;;;;;;;18.25;14.50;;;;;;;;5031639;27;45391;-85
2021/07/20 12:02:30;;;;;;;;;13.50;13.50;;;;;;;;5015780;28;45844;-85
2021/07/20 12:05:14;;;;;;;;;16.00;14.75;;;;;;;;5065481;28;45453;-85
2021/07/20 12:08:12;;;;;;;;;16.75;15.75;;;;;;;;5052913;27;46149;-85
2021/07/20 12:10:39;;;;;;;;;19.75;15.25;;;;;;;;5004800;28;45674;-85
2021/07/20 12:13:08;;;;;;;;;14.25;13.25;;;;;;;;5006832;28;45550;-85
2021/07/20 12:15:34;;;;;;;;;16.75;15.50;;;;;;;;5015709;28;45601;-84
2021/07/20 12:18:00;;;;;;;;;15.75;14.75;;;;;;;;5006711;28;45425;-84
2021/07/20 12:20:26;;;;;;;;;16.25;15.50;;;;;;;;5010531;28;46184;-84
2021/07/20 12:22:52;;;;;;;;;17.25;14.25;;;;;;;;5007851;28;45793;-85
2021/07/20 12:25:18;;;;;;;;;15.25;14.75;;;;;;;;5010357;28;45438;-85
2021/07/20 12:27:44;;;;;;;;;15.00;14.25;;;;;;;;4996454;28;46587;-83
2021/07/20 12:30:11;;;;;;;;;14.75;14.25;;;;;;;;5012332;28;45382;-84
2021/07/20 12:32:37;;;;;;;;;16.50;14.50;;;;;;;;5012964;28;45573;-84
2021/07/20 12:35:03;;;;;;;;;15.00;13.00;;;;;;;;5011364;28;45620;-84
2021/07/20 12:37:28;;;;;;;;;12.75;12.75;;;;;;;;5011834;28;46510;-83
2021/07/20 12:39:57;;;;;;;;;15.50;14.50;;;;;;;;5015213;28;45843;-83
2021/07/20 12:42:23;;;;;;;;;17.75;16.50;;;;;;;;4971615;28;45618;-84
2021/07/20 12:45:03;;;;;;;;;16.00;14.25;;;;;;;;4951688;28;45626;-84
2021/07/20 12:47:36;;;;;;;;;26.00;17.50;;;;;;;;5035837;27;45445;-84
2021/07/20 12:50:05;;;;;;;;;15.25;13.00;;;;;;;;5036339;27;45483;-84
2021/07/20 12:52:32;;;;;;;;;15.50;14.25;;;;;;;;5033753;27;45389;-84
2021/07/20 12:54:57;;;;;;;;;16.75;13.75;;;;;;;;5034130;28;45498;-84
2021/07/20 12:57:24;;;;;;;;;16.75;14.75;;;;;;;;5035152;28;46072;-84
2021/07/20 12:59:49;;;;;;;;;14.75;12.75;;;;;;;;5031336;27;46314;-84
2021/07/20 13:02:15;;;;;;;;;15.25;13.00;;;;;;;;5036383;27;45389;-84
2021/07/20 13:04:46;;;;;;;;;12.75;12.75;;;;;;;;5014101;27;45608;-84
2021/07/20 13:07:12;;;;;;;;;17.25;14.00;;;;;;;;5031542;27;45600;-84
2021/07/20 13:09:37;;;;;;;;;12.25;11.50;;;;;;;;5018313;28;48290;-83
2021/07/20 13:12:04;;;;;;;;;13.33;12.00;;;;;;;;5029987;27;45674;-84
2021/07/20 13:14:31;;;;;;;;;12.75;10.75;;;;;;;;5032556;27;45374;-83
2021/07/20 13:16:59;;;;;;;;;13.75;12.25;;;;;;;;5034264;28;46102;-83
2021/07/20 13:19:24;;;;;;;;;13.50;11.00;;;;;;;;5033110;27;45583;-84
2021/07/20 13:21:50;;;;;;;;;15.00;12.50;;;;;;;;5018471;28;45346;-84
2021/07/20 13:24:16;;;;;;;;;16.50;11.50;;;;;;;;5030708;27;45456;-83
2021/07/20 13:26:41;;;;;;;;;15.25;13.00;;;;;;;;5025398;27;45717;-84
2021/07/20 13:29:08;;;;;;;;;13.00;12.67;;;;;;;;5032946;27;45427;-85
2021/07/20 13:31:38;;;;;;;;;13.50;13.50;;;;;;;;5020277;27;45971;-85
2021/07/20 13:34:04;;;;;;;;;14.75;10.50;;;;;;;;5018063;28;45606;-86
2021/07/20 13:36:31;;;;;;;;;14.00;12.00;;;;;;;;5034660;27;46203;-90
2021/07/20 13:38:57;;;;;;;;;15.25;12.50;;;;;;;;5018483;27;46737;-83
2021/07/20 13:41:22;;;;;;;;;26.50;22.75;;;;;;;;5021841;28;45493;-84
2021/07/20 13:43:50;;;;;;;;;23.75;19.00;;;;;;;;5034412;27;45363;-84
2021/07/20 13:46:16;;;;;;;;;13.75;13.75;;;;;;;;5032552;27;46565;-85
2021/07/20 13:48:45;;;;;;;;;14.50;12.75;;;;;;;;5033256;28;45353;-84
2021/07/20 13:51:13;;;;;;;;;14.00;12.75;;;;;;;;5031031;27;45354;-85
2021/07/20 13:53:40;;;;;;;;;13.75;11.75;;;;;;;;5033451;27;45518;-86
2021/07/20 13:56:11;;;;;;;;;11.25;11.25;;;;;;;;5029992;27;46315;-83
2021/07/20 13:58:38;;;;;;;;;14.00;12.50;;;;;;;;5033957;27;45320;-83
2021/07/20 14:01:04;;;;;;;;;16.00;11.25;;;;;;;;5039389;27;45430;-83
2021/07/20 14:03:30;;;;;;;;;13.25;12.25;;;;;;;;5032993;27;45468;-83
2021/07/20 14:05:56;;;;;;;;;8.75;8.75;;;;;;;;5028978;27;45496;-83
2021/07/20 14:08:22;;;;;;;;;13.25;11.50;;;;;;;;5040030;27;45487;-83
2021/07/20 14:10:48;;;;;;;;;12.00;11.75;;;;;;;;5032819;27;45763;-82
2021/07/20 14:13:14;;;;;;;;;15.25;13.25;;;;;;;;5032293;27;45368;-82
2021/07/20 14:15:40;;;;;;;;;13.75;12.00;;;;;;;;5032258;28;45532;-83
2021/07/20 14:18:05;;;;;;;;;15.25;9.50;;;;;;;;5016543;27;45515;-83
2021/07/20 14:20:32;;;;;;;;;11.25;10.75;;;;;;;;5041949;27;45434;-82
2021/07/20 14:23:02;;;;;;;;;13.75;11.75;;;;;;;;5034690;27;45713;-82
2021/07/20 14:25:27;;;;;;;;;10.75;10.75;;;;;;;;5033341;28;47460;-82
2021/07/20 14:27:56;;;;;;;;;11.33;9.33;;;;;;;;5030200;28;45363;-83
2021/07/20 14:30:22;;;;;;;;;15.50;12.25;;;;;;;;5017395;27;45857;-82